createdAt,value
2022-10-18T00:02:08.419Z,5.00
2022-10-18T00:06:14.993Z,5.80
2022-10-18T00:10:18.014Z,4.85
2022-10-18T00:14:20.892Z,5.97
2022-10-18T00:18:25.615Z,6.95
2022-10-18T00:22:28.763Z,6.38
2022-10-18T00:26:32.616Z,5.32
2022-10-18T00:30:35.441Z,7.00
2022-10-18T00:34:39.889Z,8.93
2022-10-18T00:38:43.388Z,9.13
2022-10-18T00:42:46.199Z,6.80
2022-10-18T00:46:50.414Z,10.38
2022-10-18T00:50:54.689Z,10.65
2022-10-18T00:54:58.546Z,11.70
2022-10-18T00:59:01.612Z,11.13
2022-10-18T01:03:04.435Z,12.57
2022-10-18T01:07:27.042Z,8.90
2022-10-18T01:11:59.686Z,9.88
2022-10-18T01:16:21.180Z,10.45
2022-10-18T01:21:08.849Z,10.70
2022-10-18T01:25:29.325Z,8.88
2022-10-18T01:29:44.497Z,9.63
2022-10-18T01:33:52.354Z,7.40
2022-10-18T01:37:58.523Z,6.10
2022-10-18T01:42:06.241Z,7.63
2022-10-18T01:46:10.418Z,6.90
2022-10-18T01:50:14.838Z,4.32
2022-10-18T01:54:22.925Z,4.78
2022-10-18T01:58:32.391Z,4.55
2022-10-18T02:02:44.392Z,2.90
2022-10-18T02:06:54.212Z,3.92
2022-10-18T02:11:02.059Z,3.95
2022-10-18T02:15:07.194Z,4.35
2022-10-18T02:19:14.731Z,2.28
2022-10-18T02:23:24.142Z,4.72
2022-10-18T02:27:27.226Z,2.03
2022-10-18T02:31:36.242Z,4.07
2022-10-18T02:35:43.028Z,4.40
2022-10-18T02:39:49.928Z,5.80
2022-10-18T02:43:52.907Z,4.75
2022-10-18T02:47:55.705Z,3.30
2022-10-18T02:51:58.582Z,4.35
2022-10-18T02:56:03.411Z,2.80
2022-10-18T03:00:07.865Z,2.80
2022-10-18T03:04:11.086Z,3.65
2022-10-18T03:08:13.893Z,8.43
2022-10-18T03:12:18.208Z,7.78
2022-10-18T03:16:21.001Z,5.93
2022-10-18T03:20:23.827Z,6.07
2022-10-18T03:24:26.698Z,3.83
2022-10-18T03:28:30.914Z,3.72
2022-10-18T03:32:33.839Z,4.18
2022-10-18T03:36:38.439Z,4.05
2022-10-18T03:40:41.304Z,4.63
2022-10-18T03:44:45.461Z,7.32
2022-10-18T03:48:48.248Z,4.07
2022-10-18T03:52:51.068Z,4.45
2022-10-18T03:56:53.868Z,9.15
2022-10-18T04:00:58.096Z,5.47
2022-10-18T04:05:00.868Z,4.15
2022-10-18T04:09:06.516Z,5.05
2022-10-18T04:13:12.486Z,6.53
2022-10-18T04:17:16.737Z,3.13
2022-10-18T04:21:19.630Z,5.13
2022-10-18T04:25:22.968Z,3.42
2022-10-18T04:29:25.875Z,3.58
2022-10-18T04:33:30.170Z,5.68
2022-10-18T04:37:33.506Z,4.35
2022-10-18T04:41:36.526Z,4.20
2022-10-18T04:45:39.431Z,4.65
2022-10-18T04:49:43.668Z,3.67
2022-10-18T04:53:46.716Z,4.75
2022-10-18T04:57:49.554Z,5.18
2022-10-18T05:01:52.470Z,17.95
2022-10-18T05:06:01.721Z,8.65
2022-10-18T05:10:05.838Z,9.15
2022-10-18T05:14:10.079Z,8.82
2022-10-18T05:18:13.030Z,8.60
2022-10-18T05:22:17.200Z,6.80
2022-10-18T05:26:20.002Z,6.43
2022-10-18T05:30:22.798Z,7.30
2022-10-18T05:34:27.310Z,6.55
2022-10-18T05:38:31.799Z,10.70
2022-10-18T05:42:34.852Z,5.45
2022-10-18T05:46:37.675Z,8.40
2022-10-18T05:50:40.614Z,6.25
2022-10-18T05:54:44.778Z,10.07
2022-10-18T05:58:51.481Z,6.97
2022-10-18T06:02:58.229Z,6.35
2022-10-18T06:07:03.117Z,6.72
2022-10-18T06:11:10.127Z,7.75
2022-10-18T06:15:12.954Z,10.23
2022-10-18T06:19:15.769Z,9.13
2022-10-18T06:23:18.589Z,10.50
2022-10-18T06:27:22.743Z,8.20
2022-10-18T06:31:25.665Z,6.82
2022-10-18T06:35:28.473Z,18.88
2022-10-18T06:39:31.259Z,12.60
2022-10-18T06:43:35.958Z,12.55
2022-10-18T06:47:38.758Z,12.73
2022-10-18T06:51:42.258Z,12.23
2022-10-18T06:55:46.706Z,14.07
2022-10-18T06:59:51.924Z,12.65
2022-10-18T07:03:55.675Z,10.93
2022-10-18T07:07:58.514Z,16.27
2022-10-18T07:12:01.367Z,9.65
2022-10-18T07:16:07.961Z,12.48
2022-10-18T07:20:11.487Z,10.98
2022-10-18T07:24:14.478Z,15.70
2022-10-18T07:28:17.292Z,15.75
2022-10-18T07:32:21.429Z,13.73
2022-10-18T07:36:24.640Z,13.95
2022-10-18T07:40:27.472Z,16.92
2022-10-18T07:44:30.281Z,16.35
2022-10-18T07:48:34.446Z,15.32
2022-10-18T07:52:37.256Z,15.63
2022-10-18T07:56:40.045Z,15.13
2022-10-18T08:00:42.984Z,14.63
2022-10-18T08:04:47.423Z,15.05
2022-10-18T08:08:50.557Z,14.70
2022-10-18T08:12:55.395Z,13.88
2022-10-18T08:16:58.222Z,14.05
2022-10-18T08:21:03.022Z,12.98
2022-10-18T08:25:06.522Z,12.70
2022-10-18T08:29:21.897Z,14.25
2022-10-18T08:33:26.839Z,15.32
2022-10-18T08:37:31.147Z,11.30
2022-10-18T08:41:51.975Z,10.27
2022-10-18T08:45:56.206Z,14.45
2022-10-18T08:50:03.717Z,11.27
2022-10-18T08:54:13.196Z,10.93
2022-10-18T08:58:20.218Z,11.82
2022-10-18T09:02:39.516Z,11.85
2022-10-18T09:06:50.016Z,11.82
2022-10-18T09:11:07.899Z,16.60
2022-10-18T09:15:17.277Z,15.40
2022-10-18T09:19:30.016Z,15.70
2022-10-18T09:23:44.032Z,16.15
2022-10-18T09:27:53.696Z,16.55
2022-10-18T09:32:04.602Z,17.33
2022-10-18T09:36:10.426Z,24.90
2022-10-18T09:40:19.071Z,26.90
2022-10-18T09:44:26.573Z,28.02
2022-10-18T09:48:33.972Z,25.88
2022-10-18T09:52:42.222Z,33.00
2022-10-18T09:56:49.859Z,29.38
2022-10-18T10:00:55.117Z,36.28
2022-10-18T10:04:58.031Z,38.25
2022-10-18T10:09:06.334Z,39.60
2022-10-18T10:13:17.141Z,35.60
2022-10-18T10:17:27.385Z,44.10
2022-10-18T10:21:30.440Z,39.38
2022-10-18T10:25:36.225Z,39.95
2022-10-18T10:29:57.350Z,40.45
2022-10-18T10:34:04.488Z,43.10
2022-10-18T10:38:08.135Z,41.33
2022-10-18T10:42:15.569Z,38.75
2022-10-18T10:46:19.978Z,37.70
2022-10-18T10:50:28.837Z,43.75
2022-10-18T10:54:35.845Z,46.08
2022-10-18T10:58:40.926Z,43.72
2022-10-18T11:02:54.310Z,39.58
2022-10-18T11:07:17.623Z,42.25
2022-10-18T11:11:26.721Z,38.03
2022-10-18T11:15:36.351Z,41.15
2022-10-18T11:19:50.965Z,38.50
2022-10-18T11:23:57.098Z,38.00
2022-10-18T11:28:09.479Z,41.15
2022-10-18T11:32:22.301Z,36.90
2022-10-18T11:36:33.974Z,37.15
2022-10-18T11:40:54.866Z,34.53
2022-10-18T11:45:07.843Z,38.13
2022-10-18T11:49:33.086Z,34.78
2022-10-18T11:53:47.183Z,37.50
2022-10-18T11:58:03.259Z,40.17
2022-10-18T12:02:29.380Z,36.00
2022-10-18T12:06:35.674Z,41.17
2022-10-18T12:10:52.650Z,40.47
2022-10-18T12:15:14.238Z,42.47
2022-10-18T12:19:25.152Z,36.20
2022-10-18T12:23:39.037Z,39.83
2022-10-18T12:27:49.844Z,39.63
2022-10-18T12:31:57.675Z,40.88
2022-10-18T12:36:12.497Z,36.45
2022-10-18T12:40:21.281Z,39.25
2022-10-18T12:44:31.405Z,38.92
2022-10-18T12:48:38.696Z,34.90
2022-10-18T12:52:42.139Z,35.30
2022-10-18T12:56:46.733Z,35.65
2022-10-18T13:01:03.776Z,34.65
2022-10-18T13:05:52.016Z,38.50
2022-10-18T13:10:29.091Z,34.75
2022-10-18T13:15:05.717Z,36.95
2022-10-18T13:19:22.593Z,37.03
2022-10-18T13:23:39.453Z,28.05
2022-10-18T13:27:49.293Z,28.15
2022-10-18T13:32:00.616Z,27.23
2022-10-18T13:36:06.234Z,23.67
2022-10-18T13:40:17.046Z,19.73
2022-10-18T13:44:30.393Z,19.92
2022-10-18T13:48:51.806Z,17.83
2022-10-18T13:53:21.198Z,13.82
2022-10-18T13:57:39.818Z,14.38
2022-10-18T14:01:54.312Z,14.43
2022-10-18T14:06:04.548Z,11.82
2022-10-18T14:10:15.766Z,13.95
2022-10-18T14:14:26.241Z,11.57
2022-10-18T14:18:33.390Z,14.32
2022-10-18T14:22:41.571Z,12.32
2022-10-18T14:26:44.377Z,10.93
2022-10-18T14:30:55.669Z,14.25
2022-10-18T14:35:30.657Z,14.20
2022-10-18T14:39:28.935Z,13.68
2022-10-18T14:43:31.770Z,13.93
2022-10-18T14:51:00.407Z,13.30
2022-10-18T14:55:03.823Z,14.43
2022-10-18T14:59:16.026Z,15.43
2022-10-18T15:03:19.642Z,9.65
2022-10-18T15:07:24.750Z,13.32
2022-10-18T15:11:29.251Z,11.25
2022-10-18T15:15:33.833Z,13.20
2022-10-18T15:19:39.881Z,11.00
2022-10-18T15:23:44.042Z,12.13
2022-10-18T15:27:49.100Z,12.38
2022-10-18T15:31:52.626Z,12.05
2022-10-18T15:35:55.746Z,9.73
2022-10-18T15:40:35.324Z,11.63
2022-10-18T15:44:50.867Z,16.25
2022-10-18T15:48:53.803Z,12.00
2022-10-18T15:52:56.885Z,9.50
2022-10-18T15:56:59.842Z,10.38
2022-10-18T16:01:04.931Z,11.45
2022-10-18T16:05:13.507Z,15.32
2022-10-18T16:09:18.483Z,10.55
2022-10-18T16:13:21.523Z,13.00
2022-10-18T16:17:25.717Z,11.27
2022-10-18T16:21:31.178Z,13.27
2022-10-18T16:25:33.968Z,15.65
2022-10-18T16:29:37.031Z,12.60
2022-10-18T16:33:41.180Z,12.60
2022-10-18T16:37:43.997Z,12.73
2022-10-18T16:41:47.443Z,15.45
2022-10-18T16:45:51.069Z,15.90
2022-10-18T16:49:55.227Z,9.43
2022-10-18T16:53:58.481Z,11.80
2022-10-18T16:58:04.465Z,13.85
2022-10-18T17:02:09.167Z,13.40
2022-10-18T17:06:17.318Z,12.52
2022-10-18T17:10:24.145Z,13.00
2022-10-18T17:14:27.021Z,12.15
2022-10-18T17:18:30.629Z,16.02
2022-10-18T17:22:34.898Z,13.18
2022-10-18T17:26:37.738Z,9.45
2022-10-18T17:30:40.583Z,10.52
2022-10-18T17:34:43.422Z,12.65
2022-10-18T17:38:50.901Z,10.75
2022-10-18T17:42:54.712Z,10.93
2022-10-18T17:46:57.566Z,16.80
2022-10-18T17:51:01.501Z,11.07
2022-10-18T17:55:06.278Z,34.47
2022-10-18T17:59:09.702Z,14.45
2022-10-18T18:03:13.411Z,10.57
2022-10-18T18:07:16.258Z,12.05
2022-10-18T18:11:20.510Z,12.45
2022-10-18T18:15:23.426Z,12.15
2022-10-18T18:19:26.283Z,12.80
2022-10-18T18:23:29.125Z,14.07
2022-10-18T18:27:33.414Z,9.52
2022-10-18T18:31:40.165Z,15.18
2022-10-18T18:35:44.167Z,14.70
2022-10-18T18:39:46.966Z,17.42
2022-10-18T18:43:54.443Z,16.20
2022-10-18T18:47:57.286Z,11.98
2022-10-18T18:52:00.578Z,16.42
2022-10-18T18:56:04.511Z,16.58
2022-10-18T19:00:10.466Z,18.05
2022-10-18T19:04:13.371Z,12.43
2022-10-18T19:08:16.184Z,14.40
2022-10-18T19:12:21.347Z,14.10
2022-10-18T19:16:28.410Z,14.32
2022-10-18T19:20:32.335Z,16.48
2022-10-18T19:24:35.350Z,15.43
2022-10-18T19:28:38.343Z,18.95
2022-10-18T19:32:42.540Z,14.85
2022-10-18T19:36:47.079Z,12.10
2022-10-18T19:40:53.616Z,12.55
2022-10-18T19:44:56.853Z,16.23
2022-10-18T19:49:01.211Z,14.07
2022-10-18T19:53:04.404Z,12.98
2022-10-18T19:57:07.536Z,12.93
2022-10-18T20:01:10.387Z,15.82
2022-10-18T20:05:14.680Z,15.25
2022-10-18T20:09:20.445Z,18.88
2022-10-18T20:13:23.659Z,14.90
2022-10-18T20:17:26.485Z,14.90
2022-10-18T20:21:32.926Z,15.70
2022-10-18T20:25:36.830Z,19.35
2022-10-18T20:29:39.689Z,15.25
2022-10-18T20:33:43.580Z,15.98
2022-10-18T20:37:49.511Z,17.30
2022-10-18T20:41:52.342Z,15.20
2022-10-18T20:45:57.575Z,13.27
2022-10-18T20:50:00.507Z,14.60
2022-10-18T20:58:13.724Z,19.70
2022-10-18T21:02:18.473Z,16.67
2022-10-18T21:06:22.910Z,15.93
2022-10-18T21:10:27.523Z,17.92
2022-10-18T21:14:30.661Z,13.88
2022-10-18T21:18:35.806Z,13.82
2022-10-18T21:22:38.651Z,16.13
2022-10-18T21:26:42.959Z,18.33
2022-10-18T21:30:45.938Z,22.92
2022-10-18T21:34:48.751Z,16.38
2022-10-18T21:38:51.837Z,15.15
2022-10-18T21:42:56.292Z,14.20
2022-10-18T21:46:59.211Z,16.98
2022-10-18T21:51:04.275Z,13.75
2022-10-18T21:55:08.103Z,21.52
2022-10-18T21:59:13.741Z,20.45
2022-10-18T22:03:16.590Z,20.27
2022-10-18T22:07:19.409Z,18.25
2022-10-18T22:11:25.637Z,12.65
2022-10-18T22:15:29.842Z,16.55
2022-10-18T22:19:32.655Z,18.88
2022-10-18T22:23:37.420Z,16.73
2022-10-18T22:27:40.239Z,15.88
2022-10-18T22:31:46.482Z,18.40
2022-10-18T22:35:50.309Z,17.52
2022-10-18T22:39:53.143Z,14.00
2022-10-18T22:43:58.431Z,17.25
2022-10-18T22:48:06.175Z,14.45
2022-10-18T22:52:09.055Z,17.77
2022-10-18T22:56:15.040Z,15.00
2022-10-18T23:00:18.031Z,17.85
2022-10-18T23:04:22.222Z,14.80
2022-10-18T23:08:25.583Z,15.40
2022-10-18T23:12:28.431Z,18.70
2022-10-18T23:16:31.584Z,17.88
2022-10-18T23:20:35.789Z,19.85
2022-10-18T23:24:38.592Z,14.45
2022-10-18T23:28:43.363Z,14.48
2022-10-18T23:32:46.207Z,14.02
2022-10-18T23:36:50.348Z,15.57
2022-10-18T23:40:53.162Z,16.40
2022-10-18T23:44:55.970Z,17.55
2022-10-18T23:48:58.782Z,17.10
2022-10-18T23:53:02.963Z,16.50
2022-10-18T23:57:05.913Z,15.07
